createdAt,value
2022-08-22T00:01:15.172Z,24.17
2022-08-22T00:02:46.654Z,25.61
2022-08-22T00:02:58.382Z,25.65
2022-08-22T00:03:49.764Z,24.13
2022-08-22T00:06:35.673Z,24.09
2022-08-22T00:09:02.146Z,24.08
2022-08-22T00:11:31.641Z,24.09
2022-08-22T00:14:04.268Z,24.10
2022-08-22T00:16:42.428Z,24.10
2022-08-22T00:19:08.946Z,24.13
2022-08-22T00:21:43.233Z,24.09
2022-08-22T00:24:09.724Z,24.08
2022-08-22T00:26:45.096Z,24.02
2022-08-22T00:29:15.520Z,23.86
2022-08-22T00:31:45.765Z,23.77
2022-08-22T00:34:15.903Z,23.66
2022-08-22T00:36:50.972Z,23.64
2022-08-22T00:39:36.451Z,23.65
2022-08-22T00:42:31.241Z,23.69
2022-08-22T00:45:04.638Z,23.71
2022-08-22T00:47:43.338Z,23.69
2022-08-22T00:50:16.038Z,23.68
2022-08-22T00:52:55.036Z,23.60
2022-08-22T00:55:35.176Z,23.57
2022-08-22T00:58:19.434Z,23.56
2022-08-22T01:00:54.596Z,23.52
2022-08-22T01:03:30.585Z,23.51
2022-08-22T01:06:04.880Z,23.49
2022-08-22T01:08:39.550Z,23.47
2022-08-22T01:11:15.224Z,23.44
2022-08-22T01:13:53.954Z,23.40
2022-08-22T01:16:40.360Z,23.34
2022-08-22T01:19:25.820Z,23.32
2022-08-22T01:22:11.258Z,23.29
2022-08-22T01:25:11.509Z,23.28
2022-08-22T01:27:58.362Z,23.32
2022-08-22T01:30:46.776Z,23.39
2022-08-22T01:33:16.695Z,23.36
2022-08-22T01:36:02.139Z,23.33
2022-08-22T01:38:37.821Z,23.35
2022-08-22T01:41:17.260Z,23.29
2022-08-22T01:43:59.891Z,23.27
2022-08-22T01:46:33.511Z,23.23
2022-08-22T01:49:09.125Z,23.23
2022-08-22T01:51:45.013Z,23.20
2022-08-22T01:54:34.599Z,23.15
2022-08-22T01:57:02.867Z,23.08
2022-08-22T01:59:34.684Z,23.02
2022-08-22T02:02:25.281Z,23.02
2022-08-22T02:04:54.968Z,23.00
2022-08-22T02:07:32.219Z,22.98
2022-08-22T02:10:08.172Z,22.90
2022-08-22T02:12:42.853Z,22.83
2022-08-22T02:15:23.128Z,22.83
2022-08-22T02:18:03.136Z,22.83
2022-08-22T02:20:35.391Z,22.79
2022-08-22T02:23:07.868Z,22.73
2022-08-22T02:25:55.710Z,22.75
2022-08-22T02:28:31.094Z,22.76
2022-08-22T02:31:04.103Z,22.82
2022-08-22T02:33:50.576Z,22.80
2022-08-22T02:36:40.410Z,22.78
2022-08-22T02:39:25.767Z,22.74
2022-08-22T02:41:59.920Z,22.74
2022-08-22T02:44:30.175Z,22.70
2022-08-22T02:47:08.220Z,22.66
2022-08-22T02:49:34.920Z,22.64
2022-08-22T02:52:16.876Z,22.63
2022-08-22T02:54:46.467Z,22.61
2022-08-22T02:57:21.932Z,22.53
2022-08-22T03:00:02.172Z,22.53
2022-08-22T03:02:33.815Z,22.52
2022-08-22T03:05:16.239Z,22.46
2022-08-22T03:07:51.059Z,22.35
2022-08-22T03:10:23.406Z,22.28
2022-08-22T03:13:02.666Z,22.20
2022-08-22T03:15:31.988Z,22.14
2022-08-22T03:17:58.626Z,22.05
2022-08-22T03:20:40.605Z,22.02
2022-08-22T03:23:20.858Z,22.01
2022-08-22T03:26:07.688Z,22.02
2022-08-22T03:28:59.427Z,21.98
2022-08-22T03:31:27.725Z,21.96
2022-08-22T03:34:13.525Z,21.90
2022-08-22T03:36:45.741Z,21.83
2022-08-22T03:39:18.567Z,21.80
2022-08-22T03:42:05.364Z,21.76
2022-08-22T03:44:50.275Z,21.68
2022-08-22T03:47:40.882Z,21.64
2022-08-22T03:50:26.249Z,21.60
2022-08-22T03:53:19.065Z,21.58
2022-08-22T03:55:48.758Z,21.57
2022-08-22T03:58:34.061Z,21.59
2022-08-22T04:01:19.554Z,21.62
2022-08-22T04:04:01.371Z,21.57
2022-08-22T04:06:42.981Z,21.50
2022-08-22T04:09:35.852Z,21.48
2022-08-22T04:12:22.180Z,21.51
2022-08-22T04:14:48.781Z,21.54
2022-08-22T04:17:15.276Z,21.49
2022-08-22T04:19:57.041Z,21.43
2022-08-22T04:22:23.524Z,21.43
2022-08-22T04:24:52.972Z,21.36
2022-08-22T04:27:38.376Z,21.28
2022-08-22T04:30:22.938Z,21.31
2022-08-22T04:33:06.994Z,21.34
2022-08-22T04:35:43.020Z,21.34
2022-08-22T04:38:16.951Z,21.30
2022-08-22T04:40:46.803Z,21.33
2022-08-22T04:43:18.756Z,21.30
2022-08-22T04:45:53.279Z,21.24
2022-08-22T04:48:19.798Z,21.19
2022-08-22T04:51:03.088Z,21.17
2022-08-22T04:53:38.942Z,21.16
2022-08-22T04:56:27.288Z,21.15
2022-08-22T04:58:58.604Z,21.18
2022-08-22T05:01:37.380Z,21.17
2022-08-22T05:04:24.120Z,21.17
2022-08-22T05:06:53.739Z,21.15
2022-08-22T05:09:24.767Z,21.15
2022-08-22T05:11:54.091Z,21.12
2022-08-22T05:14:35.258Z,21.16
2022-08-22T05:17:04.342Z,21.21
2022-08-22T05:19:34.721Z,21.28
2022-08-22T05:22:02.125Z,21.31
2022-08-22T05:24:40.219Z,21.36
2022-08-22T05:27:11.836Z,21.41
2022-08-22T05:29:39.684Z,21.52
2022-08-22T05:32:07.917Z,21.64
2022-08-22T05:34:37.314Z,21.66
2022-08-22T05:37:11.963Z,21.65
2022-08-22T05:39:40.197Z,21.63
2022-08-22T05:42:12.720Z,21.65
2022-08-22T05:44:39.359Z,21.67
2022-08-22T05:47:23.330Z,21.69
2022-08-22T05:50:04.449Z,21.74
2022-08-22T05:52:49.924Z,21.72
2022-08-22T05:55:29.458Z,21.69
2022-08-22T05:58:14.951Z,21.78
2022-08-22T06:00:43.219Z,21.87
2022-08-22T06:03:20.679Z,21.88
2022-08-22T06:05:51.241Z,21.88
2022-08-22T06:08:30.133Z,21.94
2022-08-22T06:11:01.124Z,21.99
2022-08-22T06:13:43.134Z,22.07
2022-08-22T06:16:17.126Z,22.09
2022-08-22T06:18:45.172Z,22.08
2022-08-22T06:21:13.414Z,22.08
2022-08-22T06:23:43.985Z,22.18
2022-08-22T06:26:20.603Z,22.28
2022-08-22T06:28:55.354Z,22.38
2022-08-22T06:31:45.071Z,22.54
2022-08-22T06:34:14.163Z,22.71
2022-08-22T06:36:43.154Z,22.78
2022-08-22T06:39:18.837Z,22.80
2022-08-22T06:41:54.507Z,22.73
2022-08-22T06:44:23.879Z,22.80
2022-08-22T06:46:52.353Z,22.89
2022-08-22T06:49:20.872Z,23.15
2022-08-22T06:51:48.172Z,23.62
2022-08-22T06:54:17.942Z,25.58
2022-08-22T06:56:46.363Z,26.39
2022-08-22T06:59:14.746Z,26.35
2022-08-22T07:01:46.609Z,26.43
2022-08-22T07:04:14.036Z,26.46
2022-08-22T07:06:43.205Z,25.94
2022-08-22T07:09:30.831Z,25.48
2022-08-22T07:11:59.615Z,25.04
2022-08-22T07:14:28.538Z,24.78
2022-08-22T07:16:57.159Z,25.08
2022-08-22T07:19:26.862Z,25.26
2022-08-22T07:21:53.516Z,24.98
2022-08-22T07:24:22.528Z,24.83
2022-08-22T07:26:51.880Z,24.96
2022-08-22T07:29:41.576Z,25.27
2022-08-22T07:32:14.502Z,25.80
2022-08-22T07:34:56.122Z,26.29
2022-08-22T07:37:42.028Z,26.53
2022-08-22T07:40:18.929Z,26.68
2022-08-22T07:42:57.060Z,26.68
2022-08-22T07:45:23.559Z,26.87
2022-08-22T07:47:53.212Z,27.19
2022-08-22T07:50:22.956Z,27.40
2022-08-22T07:52:50.301Z,27.33
2022-08-22T07:55:19.159Z,27.25
2022-08-22T07:57:48.422Z,27.25
2022-08-22T08:00:18.307Z,27.19
2022-08-22T08:02:46.721Z,27.10
2022-08-22T08:05:14.619Z,26.89
2022-08-22T08:07:43.685Z,26.91
2022-08-22T08:10:13.908Z,26.92
2022-08-22T08:12:44.394Z,26.96
2022-08-22T08:15:25.346Z,27.08
2022-08-22T08:17:54.710Z,27.25
2022-08-22T08:20:23.315Z,27.56
2022-08-22T08:22:50.755Z,27.65
2022-08-22T08:25:22.773Z,27.65
2022-08-22T08:28:08.439Z,27.86
2022-08-22T08:30:44.462Z,28.09
2022-08-22T08:33:25.547Z,28.37
2022-08-22T08:36:02.540Z,30.22
2022-08-22T08:38:32.838Z,33.98
2022-08-22T08:41:08.568Z,35.74
2022-08-22T08:43:50.906Z,36.95
2022-08-22T08:46:20.507Z,37.65
2022-08-22T08:48:50.155Z,36.82
2022-08-22T08:51:28.787Z,37.69
2022-08-22T08:54:09.230Z,36.78
2022-08-22T08:56:47.397Z,36.02
2022-08-22T08:59:32.767Z,35.81
2022-08-22T09:02:08.636Z,36.87
2022-08-22T09:04:59.041Z,38.32
2022-08-22T09:07:42.397Z,39.69
2022-08-22T09:10:23.562Z,43.01
2022-08-22T09:13:11.143Z,45.96
2022-08-22T09:15:58.516Z,48.12
2022-08-22T09:18:50.983Z,47.99
2022-08-22T09:21:30.786Z,48.51
2022-08-22T09:24:09.752Z,48.10
2022-08-22T09:26:47.096Z,47.11
2022-08-22T09:29:54.654Z,44.07
2022-08-22T09:32:36.105Z,46.20
2022-08-22T09:35:22.373Z,47.10
2022-08-22T09:37:58.483Z,47.85
2022-08-22T09:40:31.480Z,48.08
2022-08-22T09:43:05.667Z,49.44
2022-08-22T09:45:35.516Z,49.81
2022-08-22T09:48:07.594Z,50.53
2022-08-22T09:50:34.423Z,50.30
2022-08-22T09:53:13.882Z,50.10
2022-08-22T09:55:59.428Z,50.58
2022-08-22T09:58:41.889Z,51.18
2022-08-22T10:01:32.801Z,52.13
2022-08-22T10:04:19.539Z,52.98
2022-08-22T10:06:46.364Z,53.45
2022-08-22T10:09:31.200Z,54.17
2022-08-22T10:11:58.538Z,54.89
2022-08-22T10:14:28.668Z,55.11
2022-08-22T10:17:21.602Z,54.97
2022-08-22T10:20:12.236Z,55.11
2022-08-22T10:22:47.304Z,54.18
2022-08-22T10:25:18.503Z,54.44
2022-08-22T10:28:00.184Z,54.33
2022-08-22T10:30:36.174Z,54.51
2022-08-22T10:33:06.843Z,55.35
2022-08-22T10:35:45.602Z,56.06
2022-08-22T10:38:18.406Z,56.59
2022-08-22T10:40:48.360Z,53.71
2022-08-22T10:43:20.967Z,54.57
2022-08-22T10:46:03.546Z,55.14
2022-08-22T10:48:35.571Z,55.30
2022-08-22T10:51:15.054Z,55.32
2022-08-22T10:53:54.114Z,56.27
2022-08-22T10:56:22.668Z,54.38
2022-08-22T10:59:08.519Z,54.76
2022-08-22T11:01:51.599Z,55.93
2022-08-22T11:04:18.363Z,56.31
2022-08-22T11:06:47.978Z,55.88
2022-08-22T11:09:28.254Z,55.97
2022-08-22T11:11:59.519Z,55.01
2022-08-22T11:14:55.014Z,52.70
2022-08-22T11:17:46.341Z,54.52
2022-08-22T11:20:27.033Z,52.55
2022-08-22T11:22:56.832Z,51.14
2022-08-22T11:25:58.032Z,48.04
2022-08-22T11:28:24.617Z,44.76
2022-08-22T11:30:51.147Z,45.35
2022-08-22T11:33:46.909Z,47.13
2022-08-22T11:36:46.674Z,49.11
2022-08-22T11:39:25.494Z,48.64
2022-08-22T11:41:59.910Z,48.67
2022-08-22T11:44:27.628Z,51.24
2022-08-22T11:46:57.285Z,51.97
2022-08-22T11:49:43.406Z,51.46
2022-08-22T11:52:10.015Z,51.53
2022-08-22T11:55:00.769Z,51.64
2022-08-22T11:57:30.330Z,49.28
2022-08-22T12:00:20.882Z,46.30
2022-08-22T12:03:08.936Z,43.78
2022-08-22T12:05:55.703Z,42.77
2022-08-22T12:08:25.276Z,43.52
2022-08-22T12:10:51.881Z,42.31
2022-08-22T12:13:34.823Z,41.01
2022-08-22T12:16:07.924Z,40.16
2022-08-22T12:18:58.956Z,39.53
2022-08-22T12:21:28.677Z,38.96
2022-08-22T12:23:55.741Z,38.01
2022-08-22T12:26:41.732Z,37.17
2022-08-22T12:29:28.578Z,36.24
2022-08-22T12:32:01.620Z,35.67
2022-08-22T12:34:51.576Z,35.46
2022-08-22T12:37:21.986Z,35.37
2022-08-22T12:39:52.189Z,35.23
2022-08-22T12:42:43.115Z,34.76
2022-08-22T12:45:31.476Z,34.73
2022-08-22T12:48:01.068Z,34.69
2022-08-22T12:50:28.937Z,34.57
2022-08-22T12:52:58.188Z,34.57
2022-08-22T12:55:45.741Z,34.53
2022-08-22T12:58:18.825Z,34.62
2022-08-22T13:00:47.400Z,34.56
2022-08-22T13:03:35.397Z,34.52
2022-08-22T13:06:04.745Z,34.43
2022-08-22T13:08:37.103Z,34.42
2022-08-22T13:11:22.762Z,34.44
2022-08-22T13:13:56.783Z,34.35
2022-08-22T13:16:24.933Z,34.30
2022-08-22T13:18:56.945Z,34.32
2022-08-22T13:21:31.420Z,34.41
2022-08-22T13:24:11.627Z,34.53
2022-08-22T13:26:46.517Z,34.49
2022-08-22T13:29:26.046Z,34.43
2022-08-22T13:31:58.330Z,34.31
2022-08-22T13:34:38.486Z,34.38
2022-08-22T13:37:08.186Z,34.45
2022-08-22T13:39:38.901Z,34.39
2022-08-22T13:42:14.186Z,34.47
2022-08-22T13:44:44.011Z,34.61
2022-08-22T13:47:14.968Z,34.78
2022-08-22T13:49:56.230Z,35.04
2022-08-22T13:52:32.355Z,35.13
2022-08-22T13:54:59.086Z,35.22
2022-08-22T13:57:28.406Z,35.12
2022-08-22T14:00:29.327Z,35.05
2022-08-22T14:03:05.550Z,34.90
2022-08-22T14:05:47.072Z,34.81
2022-08-22T14:08:33.976Z,34.54
2022-08-22T14:11:17.350Z,34.63
2022-08-22T14:13:46.977Z,34.69
2022-08-22T14:16:24.872Z,34.79
2022-08-22T14:18:59.209Z,34.90
2022-08-22T14:21:40.535Z,35.03
2022-08-22T14:24:47.982Z,35.04
2022-08-22T14:27:30.546Z,35.07
2022-08-22T14:30:01.306Z,35.13
2022-08-22T14:32:36.104Z,35.22
2022-08-22T14:35:35.049Z,35.07
2022-08-22T14:38:30.018Z,34.88
2022-08-22T14:41:05.754Z,34.90
2022-08-22T14:43:51.233Z,35.01
2022-08-22T14:46:46.234Z,35.04
2022-08-22T14:49:19.055Z,34.90
2022-08-22T14:51:51.119Z,34.94
2022-08-22T14:54:22.250Z,35.12
2022-08-22T14:56:50.341Z,35.16
2022-08-22T14:59:54.715Z,35.05
2022-08-22T15:02:44.639Z,34.74
2022-08-22T15:05:14.651Z,34.67
2022-08-22T15:07:52.505Z,34.64
2022-08-22T15:10:23.958Z,34.34
2022-08-22T15:12:53.846Z,34.34
2022-08-22T15:15:49.519Z,34.47
2022-08-22T15:18:28.002Z,34.65
2022-08-22T15:21:06.895Z,34.78
2022-08-22T15:23:45.347Z,34.74
2022-08-22T15:26:24.920Z,34.75
2022-08-22T15:29:07.141Z,34.74
2022-08-22T15:31:34.362Z,34.66
2022-08-22T15:34:13.018Z,34.37
2022-08-22T15:37:16.401Z,33.99
2022-08-22T15:40:21.914Z,33.52
2022-08-22T15:42:51.471Z,33.21
2022-08-22T15:45:22.881Z,33.10
2022-08-22T15:47:55.172Z,33.07
2022-08-22T15:50:33.696Z,33.02
2022-08-22T15:53:06.614Z,32.96
2022-08-22T15:55:34.700Z,32.88
2022-08-22T15:58:12.933Z,32.84
2022-08-22T16:00:43.715Z,32.76
2022-08-22T16:03:26.453Z,32.61
2022-08-22T16:05:58.021Z,32.41
2022-08-22T16:08:27.518Z,32.25
2022-08-22T16:11:16.094Z,32.07
2022-08-22T16:13:47.017Z,31.90
2022-08-22T16:16:33.969Z,31.77
2022-08-22T16:19:03.635Z,31.64
2022-08-22T16:21:30.279Z,31.52
2022-08-22T16:23:56.757Z,31.53
2022-08-22T16:26:29.375Z,31.66
2022-08-22T16:28:59.315Z,31.75
2022-08-22T16:31:37.862Z,31.86
2022-08-22T16:34:20.377Z,31.91
2022-08-22T16:36:47.282Z,32.00
2022-08-22T16:39:32.530Z,32.03
2022-08-22T16:42:14.955Z,32.03
2022-08-22T16:44:47.466Z,31.95
2022-08-22T16:47:16.903Z,31.85
2022-08-22T16:49:49.375Z,31.78
2022-08-22T16:52:25.196Z,31.70
2022-08-22T16:54:53.127Z,31.60
2022-08-22T16:57:44.474Z,31.48
2022-08-22T17:00:32.931Z,31.33
2022-08-22T17:03:06.749Z,31.32
2022-08-22T17:05:36.533Z,31.21
2022-08-22T17:08:22.026Z,31.13
2022-08-22T17:10:58.165Z,31.04
2022-08-22T17:13:32.988Z,30.93
2022-08-22T17:16:07.042Z,30.86
2022-08-22T17:18:50.122Z,30.82
2022-08-22T17:21:28.897Z,30.77
2022-08-22T17:23:55.378Z,30.69
2022-08-22T17:26:21.879Z,30.62
2022-08-22T17:28:51.571Z,30.57
2022-08-22T17:31:27.775Z,30.50
2022-08-22T17:34:02.552Z,30.40
2022-08-22T17:36:38.458Z,30.31
2022-08-22T17:39:19.441Z,30.32
2022-08-22T17:41:55.339Z,30.40
2022-08-22T17:44:28.508Z,30.39
2022-08-22T17:47:02.283Z,30.30
2022-08-22T17:49:49.263Z,30.30
2022-08-22T17:52:33.734Z,30.26
2022-08-22T17:55:18.261Z,30.17
2022-08-22T17:57:51.762Z,30.11
2022-08-22T18:00:33.264Z,30.11
2022-08-22T18:03:05.944Z,30.07
2022-08-22T18:05:35.431Z,30.07
2022-08-22T18:11:24.572Z,30.04
2022-08-22T18:13:55.019Z,30.01
2022-08-22T18:16:29.422Z,29.99
2022-08-22T18:19:01.957Z,29.95
2022-08-22T18:21:34.416Z,29.92
2022-08-22T18:24:03.515Z,29.88
2022-08-22T18:26:33.866Z,29.82
2022-08-22T18:29:20.433Z,29.71
2022-08-22T18:32:05.219Z,29.61
2022-08-22T18:35:02.536Z,29.49
2022-08-22T18:37:35.539Z,29.39
2022-08-22T18:40:08.469Z,29.32
2022-08-22T18:43:08.679Z,29.26
2022-08-22T18:45:47.573Z,29.18
2022-08-22T18:48:28.030Z,29.13
2022-08-22T18:51:12.869Z,29.08
2022-08-22T18:53:44.854Z,29.03
2022-08-22T18:56:19.362Z,28.97
2022-08-22T18:59:13.623Z,28.90
2022-08-22T19:02:03.558Z,28.84
2022-08-22T19:04:48.768Z,28.81
2022-08-22T19:07:31.131Z,28.76
2022-08-22T19:10:17.402Z,28.72
2022-08-22T19:13:00.414Z,28.68
2022-08-22T19:15:27.458Z,28.61
2022-08-22T19:17:59.515Z,28.54
2022-08-22T19:20:47.107Z,28.49
2022-08-22T19:23:31.967Z,28.46
2022-08-22T19:26:17.686Z,28.43
2022-08-22T19:28:44.265Z,28.37
2022-08-22T19:31:25.882Z,28.33
2022-08-22T19:34:11.165Z,28.29
2022-08-22T19:36:37.725Z,28.24
2022-08-22T19:39:24.786Z,28.22
2022-08-22T19:41:53.678Z,28.17
2022-08-22T19:44:20.261Z,28.11
2022-08-22T19:47:07.209Z,28.09
2022-08-22T19:49:38.668Z,28.06
2022-08-22T19:52:08.207Z,28.02
2022-08-22T19:54:41.643Z,27.98
2022-08-22T19:57:18.524Z,27.94
2022-08-22T19:59:53.869Z,27.86
2022-08-22T20:02:39.225Z,27.80
2022-08-22T20:05:18.194Z,27.76
2022-08-22T20:08:01.310Z,27.74
2022-08-22T20:10:47.012Z,27.74
2022-08-22T20:13:24.251Z,27.68
2022-08-22T20:16:03.095Z,27.55
2022-08-22T20:19:08.584Z,27.50
2022-08-22T20:21:41.165Z,27.48
2022-08-22T20:24:11.732Z,27.47
2022-08-22T20:26:52.098Z,27.44
2022-08-22T20:29:32.341Z,27.41
2022-08-22T20:31:59.142Z,27.37
2022-08-22T20:34:28.456Z,27.33
2022-08-22T20:37:22.649Z,27.25
2022-08-22T20:39:59.174Z,27.18
2022-08-22T20:42:30.650Z,27.09
2022-08-22T20:44:58.981Z,27.02
2022-08-22T20:47:32.321Z,26.98
2022-08-22T20:50:10.341Z,26.92
2022-08-22T20:52:38.508Z,26.88
2022-08-22T20:55:08.296Z,26.85
2022-08-22T20:57:43.394Z,26.82
2022-08-22T21:00:12.483Z,26.76
2022-08-22T21:02:42.256Z,26.72
2022-08-22T21:05:18.556Z,26.58
2022-08-22T21:07:46.499Z,26.57
2022-08-22T21:10:46.933Z,26.56
2022-08-22T21:13:22.981Z,26.47
2022-08-22T21:15:49.799Z,26.44
2022-08-22T21:18:36.824Z,26.42
2022-08-22T21:21:08.066Z,26.38
2022-08-22T21:23:45.484Z,26.31
2022-08-22T21:26:25.759Z,26.35
2022-08-22T21:28:57.493Z,26.34
2022-08-22T21:34:12.120Z,26.23
2022-08-22T21:36:38.856Z,26.19
2022-08-22T21:39:12.086Z,26.13
2022-08-22T21:41:41.545Z,26.09
2022-08-22T21:44:28.602Z,26.09
2022-08-22T21:46:55.583Z,26.03
2022-08-22T21:49:35.147Z,26.00
2022-08-22T21:52:02.028Z,26.00
2022-08-22T21:54:32.012Z,25.97
2022-08-22T21:57:16.923Z,25.98
2022-08-22T21:59:51.169Z,25.96
2022-08-22T22:02:25.076Z,25.97
2022-08-22T22:04:54.136Z,25.96
2022-08-22T22:07:20.869Z,25.92
2022-08-22T22:09:54.706Z,25.94
2022-08-22T22:12:22.377Z,25.94
2022-08-22T22:14:49.441Z,25.94
2022-08-22T22:17:16.761Z,25.95
2022-08-22T22:19:43.773Z,25.97
2022-08-22T22:22:10.676Z,25.96
2022-08-22T22:24:37.447Z,25.89
2022-08-22T22:27:04.596Z,25.82
2022-08-22T22:29:32.285Z,25.82
2022-08-22T22:31:59.564Z,25.77
2022-08-22T22:34:26.128Z,25.72
2022-08-22T22:36:53.621Z,25.71
2022-08-22T22:39:20.184Z,25.68
2022-08-22T22:41:46.725Z,25.65
2022-08-22T22:44:13.274Z,25.65
2022-08-22T22:46:39.858Z,25.60
2022-08-22T22:49:06.445Z,25.62
2022-08-22T22:51:33.158Z,25.62
2022-08-22T22:53:59.934Z,25.61
2022-08-22T22:56:27.485Z,25.59
2022-08-22T22:58:57.429Z,25.56
2022-08-22T23:01:28.006Z,25.55
2022-08-22T23:03:55.962Z,25.50
2022-08-22T23:06:23.882Z,25.51
2022-08-22T23:08:50.584Z,25.50
2022-08-22T23:11:35.670Z,25.44
2022-08-22T23:14:02.766Z,25.40
2022-08-22T23:16:32.928Z,25.37
2022-08-22T23:19:07.115Z,25.34
2022-08-22T23:21:33.957Z,25.23
2022-08-22T23:24:00.850Z,25.19
2022-08-22T23:26:28.166Z,25.17
2022-08-22T23:28:54.897Z,25.15
2022-08-22T23:31:32.446Z,25.12
2022-08-22T23:34:04.532Z,25.09
2022-08-22T23:36:31.380Z,25.05
2022-08-22T23:38:57.958Z,25.03
2022-08-22T23:41:24.731Z,25.04
2022-08-22T23:43:52.331Z,25.06
2022-08-22T23:46:20.008Z,25.04
2022-08-22T23:48:46.642Z,24.92
2022-08-22T23:51:14.255Z,24.92
2022-08-22T23:53:41.876Z,24.85
2022-08-22T23:56:19.887Z,24.82
2022-08-22T23:58:47.039Z,24.83
